createdAt,value
2018-10-18T00:00:12.714Z,14.47
2018-10-18T00:02:41.379Z,14.49
2018-10-18T00:05:10.326Z,14.51
2018-10-18T00:07:39.018Z,14.53
2018-10-18T00:10:08.358Z,14.46
2018-10-18T00:12:37.108Z,14.41
2018-10-18T00:15:06.562Z,14.31
2018-10-18T00:17:40.230Z,14.26
2018-10-18T00:20:09.064Z,14.22
2018-10-18T00:22:37.630Z,14.17
2018-10-18T00:25:06.470Z,14.10
2018-10-18T00:27:35.211Z,14.12
2018-10-18T00:30:03.936Z,14.09
2018-10-18T00:32:32.550Z,14.06
2018-10-18T00:35:01.161Z,14.03
2018-10-18T00:37:29.763Z,14.01
2018-10-18T00:39:58.394Z,13.97
2018-10-18T00:42:26.966Z,13.95
2018-10-18T00:44:55.603Z,13.92
2018-10-18T00:47:24.220Z,13.89
2018-10-18T00:49:52.839Z,13.92
2018-10-18T00:52:21.490Z,13.96
2018-10-18T00:54:50.069Z,13.94
2018-10-18T00:57:18.682Z,14.01
2018-10-18T00:59:47.265Z,14.01
2018-10-18T01:02:15.963Z,14.00
2018-10-18T01:04:44.490Z,14.03
2018-10-18T01:07:13.338Z,14.15
2018-10-18T01:09:41.963Z,14.20
2018-10-18T01:12:10.666Z,14.14
2018-10-18T01:14:44.482Z,14.14
2018-10-18T01:17:13.083Z,14.14
2018-10-18T01:19:41.717Z,14.16
2018-10-18T01:22:10.389Z,14.17
2018-10-18T01:24:39.012Z,14.17
2018-10-18T01:27:07.933Z,14.15
2018-10-18T01:29:36.514Z,14.20
2018-10-18T01:32:05.713Z,14.28
2018-10-18T01:34:34.341Z,14.26
2018-10-18T01:37:02.935Z,14.24
2018-10-18T01:39:31.590Z,14.26
2018-10-18T01:42:00.281Z,14.23
2018-10-18T01:44:28.838Z,14.27
2018-10-18T01:46:57.470Z,14.29
2018-10-18T01:49:26.108Z,14.35
2018-10-18T01:51:54.762Z,14.45
2018-10-18T01:54:23.358Z,14.51
2018-10-18T01:56:51.951Z,14.55
2018-10-18T01:59:20.539Z,14.52
2018-10-18T02:01:49.202Z,14.54
2018-10-18T02:04:17.865Z,14.49
2018-10-18T02:06:46.455Z,14.55
2018-10-18T02:09:15.078Z,14.48
2018-10-18T02:11:43.722Z,14.43
2018-10-18T02:14:12.335Z,14.43
2018-10-18T02:16:40.989Z,14.47
2018-10-18T02:19:09.595Z,14.40
2018-10-18T02:21:38.210Z,14.28
2018-10-18T02:24:07.030Z,14.23
2018-10-18T02:26:35.558Z,14.18
2018-10-18T02:29:04.238Z,14.11
2018-10-18T02:31:32.891Z,13.95
2018-10-18T02:34:01.442Z,14.05
2018-10-18T02:36:30.107Z,13.98
2018-10-18T02:38:58.712Z,13.92
2018-10-18T02:41:27.369Z,13.78
2018-10-18T02:43:55.954Z,13.69
2018-10-18T02:46:25.394Z,13.64
2018-10-18T02:48:54.057Z,13.57
2018-10-18T02:51:22.663Z,13.51
2018-10-18T02:53:51.350Z,13.47
2018-10-18T02:56:19.982Z,13.59
2018-10-18T02:58:48.579Z,13.52
2018-10-18T03:01:17.181Z,13.51
2018-10-18T03:03:45.825Z,13.48
2018-10-18T03:06:14.595Z,13.57
2018-10-18T03:08:43.332Z,13.47
2018-10-18T03:11:12.010Z,13.49
2018-10-18T03:13:40.606Z,13.44
2018-10-18T03:16:09.282Z,13.32
2018-10-18T03:18:37.877Z,13.23
2018-10-18T03:21:06.510Z,13.24
2018-10-18T03:23:35.108Z,13.23
2018-10-18T03:26:03.715Z,13.19
2018-10-18T03:28:32.432Z,13.05
2018-10-18T03:31:01.097Z,12.96
2018-10-18T03:33:29.836Z,12.87
2018-10-18T03:35:58.843Z,12.81
2018-10-18T03:38:27.495Z,12.85
2018-10-18T03:40:56.266Z,12.93
2018-10-18T03:43:24.885Z,12.88
2018-10-18T03:45:53.520Z,12.95
2018-10-18T03:48:22.137Z,12.87
2018-10-18T03:50:50.782Z,12.78
2018-10-18T03:53:19.399Z,12.77
2018-10-18T03:55:48.089Z,12.76
2018-10-18T03:58:16.898Z,12.64
2018-10-18T04:00:45.606Z,12.61
2018-10-18T04:03:14.218Z,12.51
2018-10-18T04:05:42.824Z,12.47
2018-10-18T04:08:11.423Z,12.31
2018-10-18T04:10:40.086Z,12.26
2018-10-18T04:13:08.731Z,12.29
2018-10-18T04:15:37.326Z,12.41
2018-10-18T04:18:06.235Z,12.54
2018-10-18T04:20:34.678Z,12.40
2018-10-18T04:23:03.409Z,12.24
2018-10-18T04:25:32.104Z,12.18
2018-10-18T04:28:00.712Z,12.21
2018-10-18T04:30:29.320Z,12.12
2018-10-18T04:32:58.009Z,12.11
2018-10-18T04:35:26.636Z,12.16
2018-10-18T04:37:55.249Z,12.12
2018-10-18T04:40:23.893Z,12.05
2018-10-18T04:42:52.507Z,12.03
2018-10-18T04:45:21.137Z,12.13
2018-10-18T04:47:49.929Z,12.05
2018-10-18T04:50:18.375Z,12.16
2018-10-18T04:52:46.983Z,12.07
2018-10-18T04:55:15.656Z,11.98
2018-10-18T04:57:44.221Z,11.87
2018-10-18T05:00:12.885Z,11.82
2018-10-18T05:02:41.643Z,11.90
2018-10-18T05:05:21.217Z,11.84
2018-10-18T05:07:49.848Z,11.73
2018-10-18T05:10:18.451Z,11.71
2018-10-18T05:12:47.105Z,11.67
2018-10-18T05:15:17.221Z,11.64
2018-10-18T05:17:45.887Z,11.62
2018-10-18T05:20:14.597Z,11.60
2018-10-18T05:22:43.259Z,11.56
2018-10-18T05:25:11.972Z,11.53
2018-10-18T05:27:40.560Z,11.54
2018-10-18T05:30:09.548Z,11.45
2018-10-18T05:32:38.194Z,11.38
2018-10-18T05:35:07.083Z,11.47
2018-10-18T05:37:35.878Z,11.57
2018-10-18T05:40:04.853Z,11.53
2018-10-18T05:42:33.462Z,11.48
2018-10-18T05:45:02.154Z,11.52
2018-10-18T05:47:30.814Z,11.50
2018-10-18T05:49:59.466Z,11.46
2018-10-18T05:52:28.105Z,11.44
2018-10-18T05:54:56.794Z,11.42
2018-10-18T05:57:31.994Z,11.44
2018-10-18T06:00:00.660Z,11.46
2018-10-18T06:02:29.287Z,11.49
2018-10-18T06:04:58.025Z,11.58
2018-10-18T06:07:26.720Z,11.62
2018-10-18T06:12:29.238Z,11.96
2018-10-18T06:14:57.901Z,11.93
2018-10-18T06:17:26.570Z,11.87
2018-10-18T06:19:55.263Z,11.92
2018-10-18T06:22:24.336Z,11.94
2018-10-18T06:24:52.996Z,11.93
2018-10-18T06:27:21.702Z,12.00
2018-10-18T06:29:50.362Z,12.01
2018-10-18T06:32:19.024Z,11.99
2018-10-18T06:34:47.693Z,12.01
2018-10-18T06:37:16.359Z,12.03
2018-10-18T06:39:45.054Z,12.05
2018-10-18T06:42:13.719Z,12.12
2018-10-18T06:44:42.381Z,12.09
2018-10-18T06:47:11.346Z,12.08
2018-10-18T06:49:39.885Z,12.04
2018-10-18T06:52:08.466Z,12.15
2018-10-18T06:54:37.148Z,12.15
2018-10-18T06:57:06.742Z,12.16
2018-10-18T06:59:35.468Z,12.16
2018-10-18T07:02:04.367Z,12.18
2018-10-18T07:04:33.070Z,12.22
2018-10-18T07:07:02.245Z,12.24
2018-10-18T07:09:30.982Z,12.26
2018-10-18T07:11:59.842Z,12.34
2018-10-18T07:14:28.493Z,12.46
2018-10-18T07:16:57.223Z,12.59
2018-10-18T07:19:25.946Z,12.59
2018-10-18T07:21:54.732Z,12.62
2018-10-18T07:24:23.411Z,12.61
2018-10-18T07:26:52.218Z,12.71
2018-10-18T07:29:20.943Z,12.82
2018-10-18T07:31:49.644Z,12.89
2018-10-18T07:34:18.388Z,12.93
2018-10-18T07:36:47.224Z,12.94
2018-10-18T07:39:15.972Z,12.84
2018-10-18T07:41:45.025Z,12.90
2018-10-18T07:44:13.801Z,12.88
2018-10-18T07:46:42.576Z,12.92
2018-10-18T07:49:11.270Z,13.00
2018-10-18T07:51:39.983Z,13.03
2018-10-18T07:54:08.766Z,12.99
2018-10-18T07:56:37.461Z,13.07
2018-10-18T07:59:06.370Z,13.08
2018-10-18T08:01:35.071Z,13.16
2018-10-18T08:04:03.742Z,13.27
2018-10-18T08:06:32.534Z,13.31
2018-10-18T08:09:01.360Z,13.38
2018-10-18T08:11:30.136Z,13.46
2018-10-18T08:13:58.912Z,13.50
2018-10-18T08:16:27.702Z,13.53
2018-10-18T08:18:56.506Z,13.78
2018-10-18T08:21:25.279Z,13.83
2018-10-18T08:23:54.013Z,13.89
2018-10-18T08:26:22.873Z,13.95
2018-10-18T08:28:51.651Z,14.03
2018-10-18T08:31:20.611Z,14.13
2018-10-18T08:33:49.349Z,14.34
2018-10-18T08:36:18.194Z,14.60
2018-10-18T08:38:47.073Z,14.85
2018-10-18T08:41:16.486Z,15.14
2018-10-18T08:43:45.371Z,15.38
2018-10-18T08:46:14.178Z,15.65
2018-10-18T08:48:42.952Z,15.81
2018-10-18T08:51:11.740Z,15.91
2018-10-18T08:53:41.350Z,16.14
2018-10-18T08:56:10.227Z,16.25
2018-10-18T08:58:39.031Z,16.01
2018-10-18T09:01:07.789Z,16.00
2018-10-18T09:03:36.480Z,16.05
2018-10-18T09:06:05.666Z,16.03
2018-10-18T09:08:34.413Z,16.12
2018-10-18T09:11:03.232Z,16.16
2018-10-18T09:13:31.990Z,16.34
2018-10-18T09:16:00.848Z,16.46
2018-10-18T09:18:29.550Z,16.56
2018-10-18T09:20:58.266Z,16.58
2018-10-18T09:23:26.982Z,16.55
2018-10-18T09:25:55.799Z,16.50
2018-10-18T09:28:24.576Z,16.49
2018-10-18T09:30:53.332Z,16.61
2018-10-18T09:33:22.031Z,16.70
2018-10-18T09:35:50.731Z,16.72
2018-10-18T09:38:19.519Z,16.81
2018-10-18T09:40:48.287Z,16.83
2018-10-18T09:43:17.231Z,16.91
2018-10-18T09:45:45.976Z,16.89
2018-10-18T09:48:14.839Z,16.88
2018-10-18T09:50:43.590Z,16.86
2018-10-18T09:53:12.283Z,16.84
2018-10-18T09:55:41.086Z,16.88
2018-10-18T09:58:09.844Z,16.91
2018-10-18T10:00:43.549Z,16.89
2018-10-18T10:03:13.632Z,17.02
2018-10-18T10:05:42.419Z,17.20
2018-10-18T10:08:11.516Z,17.34
2018-10-18T10:10:40.300Z,17.42
2018-10-18T10:13:09.545Z,17.60
2018-10-18T10:15:38.275Z,17.68
2018-10-18T10:18:07.040Z,17.80
2018-10-18T10:20:35.900Z,17.85
2018-10-18T10:23:04.664Z,17.84
2018-10-18T10:25:33.428Z,17.90
2018-10-18T10:28:02.317Z,18.01
2018-10-18T10:30:31.154Z,18.08
2018-10-18T10:32:59.841Z,18.08
2018-10-18T10:35:28.727Z,18.33
2018-10-18T10:37:57.573Z,18.17
2018-10-18T10:40:26.348Z,18.10
2018-10-18T10:42:55.212Z,18.32
2018-10-18T10:45:24.234Z,18.37
2018-10-18T10:47:53.275Z,18.35
2018-10-18T10:50:22.090Z,18.36
2018-10-18T10:52:50.876Z,18.36
2018-10-18T10:55:19.593Z,18.47
2018-10-18T10:57:48.306Z,18.58
2018-10-18T11:00:26.890Z,18.71
2018-10-18T11:02:55.643Z,18.73
2018-10-18T11:05:24.364Z,18.72
2018-10-18T11:07:53.077Z,18.86
2018-10-18T11:10:21.754Z,18.96
2018-10-18T11:12:50.489Z,18.96
2018-10-18T11:15:19.336Z,18.99
2018-10-18T11:17:47.951Z,18.86
2018-10-18T11:20:16.697Z,18.89
2018-10-18T11:22:45.436Z,19.08
2018-10-18T11:25:14.185Z,19.10
2018-10-18T11:27:42.945Z,19.18
2018-10-18T11:30:11.741Z,19.30
2018-10-18T11:32:40.462Z,19.08
2018-10-18T11:35:09.164Z,19.00
2018-10-18T11:37:37.935Z,19.26
2018-10-18T11:40:07.254Z,19.39
2018-10-18T11:42:36.089Z,19.46
2018-10-18T11:45:04.747Z,19.57
2018-10-18T11:47:33.575Z,19.76
2018-10-18T11:50:02.304Z,19.77
2018-10-18T11:52:31.010Z,19.76
2018-10-18T11:54:59.695Z,19.92
2018-10-18T11:57:28.401Z,19.93
2018-10-18T11:59:57.110Z,19.76
2018-10-18T12:02:25.871Z,19.69
2018-10-18T12:04:54.660Z,19.76
2018-10-18T12:07:23.419Z,19.59
2018-10-18T12:09:52.142Z,19.43
2018-10-18T12:12:20.820Z,19.40
2018-10-18T12:14:49.549Z,19.37
2018-10-18T12:17:18.260Z,19.54
2018-10-18T12:19:46.967Z,19.59
2018-10-18T12:22:15.688Z,19.68
2018-10-18T12:24:44.385Z,19.79
2018-10-18T12:27:13.188Z,19.87
2018-10-18T12:29:41.896Z,19.89
2018-10-18T12:32:10.679Z,20.06
2018-10-18T12:34:39.439Z,20.02
2018-10-18T12:37:08.137Z,20.16
2018-10-18T12:39:36.887Z,20.16
2018-10-18T12:42:05.639Z,20.01
2018-10-18T12:44:40.018Z,19.98
2018-10-18T12:47:10.495Z,19.76
2018-10-18T12:49:40.498Z,19.84
2018-10-18T12:52:10.789Z,19.92
2018-10-18T12:54:39.809Z,19.91
2018-10-18T12:57:10.098Z,20.00
2018-10-18T12:59:38.788Z,20.32
2018-10-18T13:02:07.766Z,20.55
2018-10-18T13:04:36.765Z,20.56
2018-10-18T13:07:05.659Z,20.79
2018-10-18T13:09:34.473Z,20.71
2018-10-18T13:12:03.193Z,20.60
2018-10-18T13:14:31.922Z,20.35
2018-10-18T13:17:00.622Z,20.30
2018-10-18T13:19:29.300Z,20.20
2018-10-18T13:21:58.014Z,20.22
2018-10-18T13:24:26.676Z,20.28
2018-10-18T13:26:55.384Z,20.38
2018-10-18T13:29:24.077Z,20.49
2018-10-18T13:31:52.729Z,20.54
2018-10-18T13:34:21.387Z,20.47
2018-10-18T13:36:50.030Z,20.50
2018-10-18T13:39:18.711Z,20.47
2018-10-18T13:41:47.378Z,20.51
2018-10-18T13:44:16.054Z,20.53
2018-10-18T13:46:44.764Z,20.54
2018-10-18T13:49:13.419Z,20.53
2018-10-18T13:51:42.277Z,20.58
2018-10-18T13:54:11.056Z,20.58
2018-10-18T13:56:39.623Z,20.63
2018-10-18T13:59:18.144Z,20.58
2018-10-18T14:01:46.702Z,20.64
2018-10-18T14:04:15.383Z,20.70
2018-10-18T14:06:44.034Z,20.79
2018-10-18T14:09:12.679Z,20.82
2018-10-18T14:11:41.439Z,21.11
2018-10-18T14:14:10.200Z,21.45
2018-10-18T14:16:38.836Z,21.91
2018-10-18T14:19:07.488Z,22.22
2018-10-18T14:21:36.254Z,22.51
2018-10-18T14:24:05.688Z,22.96
2018-10-18T14:26:34.340Z,23.27
2018-10-18T14:29:03.044Z,23.53
2018-10-18T14:31:31.706Z,23.59
2018-10-18T14:34:00.342Z,23.76
2018-10-18T14:36:29.084Z,24.02
2018-10-18T14:38:57.916Z,24.22
2018-10-18T14:41:31.987Z,24.36
2018-10-18T14:44:00.683Z,24.37
2018-10-18T14:46:29.350Z,24.28
2018-10-18T14:48:58.010Z,24.34
2018-10-18T14:51:26.683Z,24.39
2018-10-18T14:53:55.366Z,24.34
2018-10-18T14:56:24.153Z,24.23
2018-10-18T14:58:52.899Z,24.18
2018-10-18T15:01:21.595Z,24.03
2018-10-18T15:03:50.428Z,23.93
2018-10-18T15:06:19.275Z,23.45
2018-10-18T15:08:47.967Z,22.83
2018-10-18T15:11:16.661Z,22.22
2018-10-18T15:13:45.379Z,21.63
2018-10-18T15:16:14.148Z,21.13
2018-10-18T15:18:42.890Z,20.85
2018-10-18T15:21:11.595Z,20.87
2018-10-18T15:23:40.263Z,20.74
2018-10-18T15:26:09.098Z,20.58
2018-10-18T15:28:37.683Z,20.39
2018-10-18T15:31:06.407Z,20.29
2018-10-18T15:33:35.112Z,20.28
2018-10-18T15:36:03.937Z,20.21
2018-10-18T15:38:32.668Z,20.04
2018-10-18T15:41:01.333Z,19.88
2018-10-18T15:43:30.064Z,19.54
2018-10-18T15:45:58.735Z,19.20
2018-10-18T15:48:27.416Z,18.88
2018-10-18T15:50:56.122Z,18.58
2018-10-18T15:53:24.754Z,18.32
2018-10-18T15:55:53.464Z,18.00
2018-10-18T15:58:22.120Z,17.75
2018-10-18T16:00:50.793Z,17.52
2018-10-18T16:03:19.587Z,17.34
2018-10-18T16:05:48.247Z,17.12
2018-10-18T16:08:16.991Z,16.94
2018-10-18T16:10:45.715Z,16.77
2018-10-18T16:13:14.486Z,16.63
2018-10-18T16:15:43.229Z,16.48
2018-10-18T16:18:11.945Z,16.38
2018-10-18T16:20:40.735Z,16.24
2018-10-18T16:23:09.471Z,16.16
2018-10-18T16:25:38.206Z,16.07
2018-10-18T16:28:06.971Z,15.98
2018-10-18T16:30:35.604Z,15.88
2018-10-18T16:33:04.398Z,15.76
2018-10-18T16:35:33.073Z,15.65
2018-10-18T16:38:01.765Z,15.53
2018-10-18T16:40:30.522Z,15.44
2018-10-18T16:43:04.724Z,15.35
2018-10-18T16:45:33.452Z,15.24
2018-10-18T16:48:02.166Z,15.17
2018-10-18T16:50:30.859Z,15.10
2018-10-18T16:52:59.583Z,15.06
2018-10-18T16:55:28.235Z,14.98
2018-10-18T16:57:56.975Z,14.92
2018-10-18T17:00:25.635Z,14.86
2018-10-18T17:02:54.360Z,14.79
2018-10-18T17:05:23.098Z,14.72
2018-10-18T17:07:51.850Z,14.68
2018-10-18T17:10:20.630Z,14.66
2018-10-18T17:12:49.213Z,14.62
2018-10-18T17:15:18.198Z,14.61
2018-10-18T17:17:47.818Z,14.59
2018-10-18T17:20:16.712Z,14.56
2018-10-18T17:22:45.308Z,14.47
2018-10-18T17:25:14.006Z,14.43
2018-10-18T17:27:42.717Z,14.40
2018-10-18T17:30:11.376Z,14.42
2018-10-18T17:32:40.160Z,14.46
2018-10-18T17:35:08.845Z,14.53
2018-10-18T17:37:37.574Z,14.49
2018-10-18T17:40:06.849Z,14.44
2018-10-18T17:42:35.465Z,14.37
2018-10-18T17:45:04.175Z,14.29
2018-10-18T17:47:32.859Z,14.29
2018-10-18T17:50:01.569Z,14.23
2018-10-18T17:52:30.216Z,14.24
2018-10-18T17:54:58.941Z,14.26
2018-10-18T17:57:27.614Z,14.25
2018-10-18T17:59:56.417Z,14.17
2018-10-18T18:02:25.091Z,14.08
2018-10-18T18:04:53.791Z,14.04
2018-10-18T18:07:22.470Z,14.07
2018-10-18T18:09:51.107Z,14.10
2018-10-18T18:12:19.801Z,14.10
2018-10-18T18:14:48.528Z,14.12
2018-10-18T18:17:17.238Z,14.06
2018-10-18T18:19:46.006Z,14.03
2018-10-18T18:22:14.667Z,13.97
2018-10-18T18:24:43.420Z,14.00
2018-10-18T18:27:12.077Z,14.06
2018-10-18T18:29:40.734Z,14.10
2018-10-18T18:32:09.524Z,14.11
2018-10-18T18:34:38.316Z,14.12
2018-10-18T18:37:07.076Z,14.08
2018-10-18T18:39:35.817Z,14.10
2018-10-18T18:42:04.586Z,14.06
2018-10-18T18:44:33.320Z,14.01
2018-10-18T18:47:02.046Z,14.04
2018-10-18T18:49:30.805Z,13.96
2018-10-18T18:51:59.599Z,13.95
2018-10-18T18:54:28.338Z,13.90
2018-10-18T18:56:57.086Z,13.85
2018-10-18T18:59:25.775Z,13.77
2018-10-18T19:01:54.475Z,13.71
2018-10-18T19:04:23.174Z,13.65
2018-10-18T19:06:51.818Z,13.59
2018-10-18T19:09:20.439Z,13.55
2018-10-18T19:11:49.303Z,13.52
2018-10-18T19:14:17.998Z,13.60
2018-10-18T19:16:46.740Z,13.61
2018-10-18T19:19:15.516Z,13.57
2018-10-18T19:21:44.289Z,13.50
2018-10-18T19:24:13.197Z,13.68
2018-10-18T19:26:41.944Z,13.79
2018-10-18T19:29:10.696Z,13.68
2018-10-18T19:31:39.527Z,13.55
2018-10-18T19:34:08.497Z,13.54
2018-10-18T19:36:37.314Z,13.56
2018-10-18T19:39:07.942Z,13.51
2018-10-18T19:41:36.684Z,13.39
2018-10-18T19:44:05.732Z,13.33
2018-10-18T19:46:34.541Z,13.26
2018-10-18T19:49:03.343Z,13.17
2018-10-18T19:51:32.202Z,13.17
2018-10-18T19:54:00.908Z,13.10
2018-10-18T19:56:29.542Z,13.02
2018-10-18T19:58:58.187Z,13.02
2018-10-18T20:01:26.910Z,13.03
2018-10-18T20:03:55.635Z,13.04
2018-10-18T20:06:24.361Z,12.99
2018-10-18T20:08:53.093Z,12.96
2018-10-18T20:11:21.847Z,12.98
2018-10-18T20:13:50.589Z,13.12
2018-10-18T20:16:19.321Z,13.14
2018-10-18T20:18:48.290Z,13.09
2018-10-18T20:21:17.084Z,13.06
2018-10-18T20:23:45.916Z,13.07
2018-10-18T20:26:14.840Z,13.05
2018-10-18T20:28:43.360Z,13.05
2018-10-18T20:31:12.174Z,12.99
2018-10-18T20:33:40.824Z,12.91
2018-10-18T20:36:09.610Z,12.84
2018-10-18T20:38:38.316Z,12.79
2018-10-18T20:41:07.173Z,12.69
2018-10-18T20:43:35.826Z,12.71
2018-10-18T20:46:04.645Z,12.69
2018-10-18T20:48:34.004Z,12.68
2018-10-18T20:51:03.521Z,12.70
2018-10-18T20:53:32.483Z,12.70
2018-10-18T20:56:02.110Z,12.66
2018-10-18T20:58:31.930Z,12.72
2018-10-18T21:01:00.830Z,12.84
2018-10-18T21:03:29.525Z,13.13
2018-10-18T21:05:59.071Z,13.32
2018-10-18T21:08:27.676Z,13.58
2018-10-18T21:10:56.444Z,13.54
2018-10-18T21:13:25.117Z,13.69
2018-10-18T21:15:53.776Z,13.95
2018-10-18T21:18:22.566Z,13.85
2018-10-18T21:20:51.325Z,13.78
2018-10-18T21:23:20.041Z,13.78
2018-10-18T21:25:48.766Z,14.12
2018-10-18T21:28:17.475Z,14.05
2018-10-18T21:30:46.198Z,14.14
2018-10-18T21:33:14.997Z,14.11
2018-10-18T21:35:43.595Z,14.20
2018-10-18T21:38:12.251Z,14.10
2018-10-18T21:40:40.935Z,14.11
2018-10-18T21:43:09.577Z,14.24
2018-10-18T21:45:38.326Z,14.06
2018-10-18T21:48:07.154Z,13.85
2018-10-18T21:50:35.785Z,13.78
2018-10-18T21:53:04.505Z,13.52
2018-10-18T21:55:33.147Z,13.31
2018-10-18T21:58:01.884Z,13.15
2018-10-18T22:00:35.109Z,13.06
2018-10-18T22:03:03.901Z,13.19
2018-10-18T22:05:32.506Z,13.11
2018-10-18T22:08:01.250Z,12.96
2018-10-18T22:10:29.894Z,12.83
2018-10-18T22:12:58.555Z,12.79
2018-10-18T22:15:27.277Z,12.72
2018-10-18T22:17:55.887Z,12.69
2018-10-18T22:20:24.743Z,12.71
2018-10-18T22:22:53.426Z,12.68
2018-10-18T22:25:22.110Z,12.63
2018-10-18T22:27:50.819Z,12.65
2018-10-18T22:30:19.503Z,12.68
2018-10-18T22:32:48.175Z,12.72
2018-10-18T22:35:16.923Z,12.77
2018-10-18T22:37:45.540Z,12.72
2018-10-18T22:40:14.263Z,12.71
2018-10-18T22:42:42.957Z,12.77
2018-10-18T22:45:11.657Z,12.79
2018-10-18T22:47:40.235Z,12.82
2018-10-18T22:50:08.896Z,12.78
2018-10-18T22:52:37.573Z,12.80
2018-10-18T22:55:06.643Z,12.74
2018-10-18T22:57:35.274Z,12.66
2018-10-18T23:00:04.056Z,12.60
2018-10-18T23:02:32.697Z,12.57
2018-10-18T23:05:01.447Z,12.55
2018-10-18T23:07:30.134Z,12.54
2018-10-18T23:09:58.867Z,12.54
2018-10-18T23:12:27.663Z,12.58
2018-10-18T23:14:56.387Z,12.58
2018-10-18T23:17:25.027Z,12.55
2018-10-18T23:19:53.682Z,12.51
2018-10-18T23:22:22.347Z,12.48
2018-10-18T23:24:51.085Z,12.62
2018-10-18T23:27:18.819Z,12.63
2018-10-18T23:29:47.578Z,12.57
2018-10-18T23:32:16.220Z,12.53
2018-10-18T23:34:44.910Z,12.53
2018-10-18T23:37:13.590Z,12.49
2018-10-18T23:39:42.300Z,12.40
2018-10-18T23:42:11.018Z,12.39
2018-10-18T23:44:39.679Z,12.42
2018-10-18T23:47:08.372Z,12.34
2018-10-18T23:49:37.000Z,12.30
2018-10-18T23:52:05.812Z,12.31
2018-10-18T23:54:34.668Z,12.26
2018-10-18T23:57:03.365Z,12.26
2018-10-18T23:59:32.178Z,12.22
